Time;durP1;ratioP1;P1;durP2;ratioP2;P2;SDS_P1;SDS_P2;PMS_P1;PMS_P2;Temp;Humidity;BMP_temperature;BMP_pressure;BME280_temperature;BME280_humidity;BME280_pressure;Samples;Min_cycle;Max_cycle;Signal;HPM_P1;HPM_P2
2022/05/13 00:00:39;;;;;;;7.93;5.90;;;;;;;16.72;100.00;98372.16;5053610;28;20205;-72
2022/05/13 00:03:06;;;;;;;6.80;6.23;;;;;;;16.71;100.00;98374.03;5053226;28;20696;-72
2022/05/13 00:05:33;;;;;;;6.83;6.27;;;;;;;16.69;100.00;98372.69;5053243;28;20220;-71
2022/05/13 00:07:59;;;;;;;8.37;6.73;;;;;;;16.69;100.00;98364.63;5053112;28;20570;-71
2022/05/13 00:10:25;;;;;;;7.90;7.20;;;;;;;16.72;100.00;98364.94;5053716;28;20227;-71
2022/05/13 00:12:53;;;;;;;6.90;6.30;;;;;;;16.69;100.00;98367.31;5053163;28;20212;-71
2022/05/13 00:15:24;;;;;;;7.73;6.93;;;;;;;16.66;100.00;98371.31;5053098;28;20209;-72
2022/05/13 00:17:51;;;;;;;7.53;6.80;;;;;;;16.70;100.00;98375.09;5053443;28;20294;-72
2022/05/13 00:20:17;;;;;;;8.57;6.60;;;;;;;16.76;100.00;98366.06;5053926;28;20652;-71
2022/05/13 00:22:52;;;;;;;7.17;6.57;;;;;;;16.87;100.00;98375.03;5053336;28;20225;-71
2022/05/13 00:25:21;;;;;;;6.97;5.93;;;;;;;16.90;100.00;98371.84;5053398;28;20189;-71
2022/05/13 00:27:48;;;;;;;7.27;6.17;;;;;;;16.91;100.00;98379.66;5053749;28;20233;-71
2022/05/13 00:30:15;;;;;;;9.17;6.27;;;;;;;16.88;100.00;98374.75;5053327;28;20567;-71
2022/05/13 00:32:42;;;;;;;6.67;6.10;;;;;;;16.91;100.00;98371.59;5053006;28;20694;-71
2022/05/13 00:35:09;;;;;;;7.47;6.67;;;;;;;16.93;100.00;98374.84;5053284;28;20279;-72
2022/05/13 00:37:35;;;;;;;8.53;7.30;;;;;;;16.94;100.00;98371.09;5052862;28;20742;-72
2022/05/13 00:40:02;;;;;;;7.73;7.00;;;;;;;16.92;100.00;98373.22;5053171;28;20205;-71
2022/05/13 00:42:29;;;;;;;7.53;6.83;;;;;;;16.93;100.00;98372.16;5052752;28;20231;-71
2022/05/13 00:44:57;;;;;;;7.87;7.17;;;;;;;16.97;100.00;98365.19;5053142;28;20211;-71
2022/05/13 00:47:23;;;;;;;7.67;6.63;;;;;;;16.99;100.00;98371.16;5052833;28;20232;-71
2022/05/13 00:49:51;;;;;;;8.07;6.90;;;;;;;16.96;100.00;98366.28;5053128;28;20209;-71
2022/05/13 00:52:17;;;;;;;8.00;6.57;;;;;;;16.94;100.00;98368.41;5053135;28;20205;-72
2022/05/13 00:54:44;;;;;;;8.00;7.30;;;;;;;16.93;100.00;98371.34;5053141;28;20602;-71
2022/05/13 00:57:12;;;;;;;8.07;6.67;;;;;;;16.94;100.00;98356.84;5056630;28;20216;-72
2022/05/13 00:59:41;;;;;;;7.57;6.83;;;;;;;16.93;100.00;98356.06;5056974;28;20371;-71
2022/05/13 01:02:08;;;;;;;10.13;7.70;;;;;;;16.85;100.00;98358.34;5056956;28;20205;-71
2022/05/13 01:04:37;;;;;;;9.63;7.03;;;;;;;16.89;100.00;98357.63;5056605;28;20275;-71
2022/05/13 01:07:09;;;;;;;6.93;6.33;;;;;;;16.91;100.00;98363.53;5056753;28;20262;-71
2022/05/13 01:09:42;;;;;;;6.73;6.07;;;;;;;16.89;100.00;98354.09;5056696;28;20193;-71
2022/05/13 01:12:15;;;;;;;6.70;6.10;;;;;;;16.86;100.00;98344.69;5056494;28;20854;-71
2022/05/13 01:14:47;;;;;;;7.37;6.63;;;;;;;16.83;100.00;98344.38;5056428;28;20702;-71
2022/05/13 01:20:13;;;;;;;8.10;7.47;;;;;;;16.75;100.00;98348.31;5056717;28;20185;-71
2022/05/13 01:22:46;;;;;;;8.23;7.43;;;;;;;16.77;100.00;98340.00;5056489;28;20194;-72
2022/05/13 01:25:16;;;;;;;8.60;7.67;;;;;;;16.72;100.00;98338.06;5056230;28;20189;-71
2022/05/13 01:27:45;;;;;;;8.23;7.53;;;;;;;16.67;100.00;98334.50;5056362;28;20229;-71
2022/05/13 01:30:32;;;;;;;8.60;7.80;;;;;;;16.59;100.00;98338.44;5056038;28;20571;-70
2022/05/13 01:32:58;;;;;;;9.03;8.00;;;;;;;16.57;100.00;98332.53;5056423;28;20185;-71
2022/05/13 01:35:25;;;;;;;8.47;7.50;;;;;;;16.50;100.00;98325.72;5056297;28;20232;-71
2022/05/13 01:37:52;;;;;;;8.70;7.77;;;;;;;16.50;100.00;98345.31;5056481;28;20235;-71
2022/05/13 01:40:18;;;;;;;8.67;7.63;;;;;;;16.50;100.00;98350.69;5056201;28;20212;-70
2022/05/13 01:42:45;;;;;;;7.23;6.50;;;;;;;16.57;100.00;98350.50;5056074;28;20217;-70
2022/05/13 01:45:12;;;;;;;8.30;7.53;;;;;;;16.50;100.00;98337.25;5056140;28;20209;-70
2022/05/13 01:47:39;;;;;;;8.07;6.77;;;;;;;16.40;100.00;98331.78;5055994;28;20225;-70
2022/05/13 01:50:07;;;;;;;7.07;6.43;;;;;;;16.30;100.00;98338.84;5055716;28;20575;-70
2022/05/13 01:52:33;;;;;;;6.60;5.90;;;;;;;16.24;100.00;98346.00;5055646;28;20220;-70
2022/05/13 01:54:59;;;;;;;7.97;5.80;;;;;;;16.24;100.00;98356.75;5055901;28;20205;-70
2022/05/13 01:57:26;;;;;;;7.07;6.10;;;;;;;16.21;100.00;98365.31;5055792;28;20221;-70
2022/05/13 01:59:53;;;;;;;8.47;6.00;;;;;;;16.20;100.00;98368.22;5055820;28;20208;-70
2022/05/13 02:02:19;;;;;;;8.43;5.97;;;;;;;16.09;100.00;98369.94;5055770;28;20225;-70
2022/05/13 02:04:45;;;;;;;8.47;6.00;;;;;;;16.03;100.00;98356.69;5055583;28;20238;-70
2022/05/13 02:07:11;;;;;;;7.43;6.17;;;;;;;16.03;100.00;98352.16;5054743;28;20238;-70
2022/05/13 02:09:37;;;;;;;9.70;6.57;;;;;;;16.01;100.00;98346.22;5055421;28;20201;-70
2022/05/13 02:12:05;;;;;;;8.00;5.90;;;;;;;16.05;100.00;98342.00;5055665;28;20200;-70
2022/05/13 02:14:31;;;;;;;7.97;6.80;;;;;;;16.04;100.00;98350.28;5055241;28;20664;-70
2022/05/13 02:16:58;;;;;;;8.53;7.67;;;;;;;16.01;100.00;98365.00;5055449;28;20591;-70
2022/05/13 02:19:24;;;;;;;9.70;7.00;;;;;;;15.93;100.00;98380.69;5056008;28;20216;-70
2022/05/13 02:21:50;;;;;;;10.30;6.90;;;;;;;15.90;100.00;98386.53;5055394;28;20305;-70
2022/05/13 02:24:17;;;;;;;10.63;7.60;;;;;;;15.91;100.00;98383.63;5055401;28;20591;-70
2022/05/13 02:26:43;;;;;;;8.93;7.97;;;;;;;15.90;100.00;98383.84;5055354;28;20208;-70
2022/05/13 02:29:10;;;;;;;10.23;7.50;;;;;;;15.87;100.00;98373.63;5055238;28;20231;-70
2022/05/13 02:31:36;;;;;;;10.23;7.63;;;;;;;15.79;100.00;98353.38;5055256;28;20205;-70
2022/05/13 02:34:03;;;;;;;9.53;6.40;;;;;;;15.77;100.00;98349.31;5055222;28;20204;-70
2022/05/13 02:36:29;;;;;;;15.47;7.90;;;;;;;15.84;100.00;98361.50;5055165;28;20216;-70
2022/05/13 02:38:55;;;;;;;10.40;6.43;;;;;;;15.76;100.00;98359.25;5054669;28;20586;-70
2022/05/13 02:41:22;;;;;;;9.77;7.13;;;;;;;15.70;100.00;98356.75;5054776;28;20205;-69
2022/05/13 02:43:54;;;;;;;7.50;6.80;;;;;;;15.68;100.00;98356.16;5054922;28;20312;-70
2022/05/13 02:46:24;;;;;;;8.70;6.80;;;;;;;15.62;100.00;98365.19;5054935;28;20276;-70
2022/05/13 02:48:50;;;;;;;9.87;6.53;;;;;;;15.58;100.00;98362.19;5054645;28;20236;-70
2022/05/13 02:51:18;;;;;;;9.53;6.00;;;;;;;15.59;100.00;98365.66;5054793;28;20202;-70
2022/05/13 02:53:44;;;;;;;9.13;6.23;;;;;;;15.58;100.00;98356.81;5054871;28;20205;-70
2022/05/13 02:56:11;;;;;;;11.03;6.17;;;;;;;15.52;100.00;98354.28;5054708;28;20209;-70
2022/05/13 02:58:39;;;;;;;9.67;6.57;;;;;;;15.52;100.00;98349.72;5054445;28;20229;-70
2022/05/13 03:01:08;;;;;;;6.47;5.87;;;;;;;15.53;100.00;98354.06;5054319;28;20205;-70
2022/05/13 03:03:37;;;;;;;9.03;5.80;;;;;;;15.48;100.00;98358.50;5054540;28;20588;-70
2022/05/13 03:06:04;;;;;;;9.63;6.77;;;;;;;15.45;100.00;98361.66;5054525;28;20204;-70
2022/05/13 03:08:30;;;;;;;7.13;6.43;;;;;;;15.44;100.00;98357.38;5054134;28;20232;-70
2022/05/13 03:10:56;;;;;;;9.10;6.90;;;;;;;15.44;100.00;98357.38;5054183;28;20585;-70
2022/05/13 03:13:23;;;;;;;9.43;7.03;;;;;;;15.47;100.00;98359.56;5054436;28;20232;-70
2022/05/13 03:15:49;;;;;;;9.27;6.80;;;;;;;15.45;100.00;98354.44;5054392;28;20213;-70
2022/05/13 03:18:16;;;;;;;10.60;6.97;;;;;;;15.40;100.00;98348.19;5053914;28;20225;-70
2022/05/13 03:20:42;;;;;;;9.93;7.27;;;;;;;15.42;100.00;98357.59;5054076;28;20205;-70
2022/05/13 03:23:09;;;;;;;11.50;7.83;;;;;;;15.53;100.00;98355.91;5053856;28;20209;-70
2022/05/13 03:25:35;;;;;;;6.90;6.30;;;;;;;15.52;100.00;98356.97;5054213;28;20575;-70
2022/05/13 03:28:02;;;;;;;8.27;5.67;;;;;;;15.56;100.00;98355.44;5054044;28;20233;-70
2022/05/13 03:30:28;;;;;;;10.37;7.23;;;;;;;15.53;100.00;98353.22;5053772;28;20220;-70
2022/05/13 03:32:55;;;;;;;7.80;6.27;;;;;;;15.54;100.00;98342.28;5053742;28;20205;-70
2022/05/13 03:35:23;;;;;;;10.60;6.60;;;;;;;15.53;100.00;98343.34;5053774;28;20205;-70
2022/05/13 03:37:50;;;;;;;8.83;7.10;;;;;;;15.46;100.00;98349.88;5053379;28;20355;-70
2022/05/13 03:40:18;;;;;;;7.80;6.97;;;;;;;15.51;100.00;98350.00;5053692;28;20201;-70
2022/05/13 03:42:44;;;;;;;9.67;6.57;;;;;;;15.47;100.00;98352.31;5053313;28;20217;-70
2022/05/13 03:45:13;;;;;;;7.83;6.30;;;;;;;15.55;100.00;98346.56;5053694;28;20225;-70
2022/05/13 03:47:40;;;;;;;8.90;6.07;;;;;;;15.50;100.00;98340.31;5053666;28;20273;-70
2022/05/13 03:50:07;;;;;;;13.40;7.57;;;;;;;15.47;100.00;98349.66;5053652;28;20212;-70
2022/05/13 03:52:34;;;;;;;8.43;6.80;;;;;;;15.51;100.00;98355.34;5053403;28;20209;-70
2022/05/13 03:55:00;;;;;;;7.30;6.53;;;;;;;15.52;100.00;98356.97;5053697;28;20208;-70
2022/05/13 03:57:27;;;;;;;9.00;7.27;;;;;;;15.44;100.00;98349.34;5053780;28;20240;-70
2022/05/13 03:59:53;;;;;;;9.57;6.97;;;;;;;15.45;100.00;98359.81;5052949;28;20205;-70
2022/05/13 04:02:20;;;;;;;8.37;6.43;;;;;;;15.53;100.00;98353.22;5053520;28;20213;-70
2022/05/13 04:10:14;;;;;;;8.03;7.23;;;;;;;15.60;100.00;98348.53;5053247;28;20200;-70
2022/05/13 04:18:08;;;;;;;11.13;7.43;;;;;;;15.53;100.00;98346.03;5053190;28;20216;-70
2022/05/13 04:20:35;;;;;;;10.27;7.07;;;;;;;15.54;100.00;98339.59;5053092;28;20292;-70
2022/05/13 04:23:02;;;;;;;9.37;7.60;;;;;;;15.55;100.00;98346.56;5052852;28;20209;-70
2022/05/13 04:25:28;;;;;;;9.07;6.87;;;;;;;15.55;100.00;98345.75;5053131;28;20225;-70
2022/05/13 04:27:55;;;;;;;7.37;6.67;;;;;;;15.57;100.00;98357.88;5053128;28;20221;-70
2022/05/13 04:30:21;;;;;;;8.23;7.37;;;;;;;15.54;100.00;98347.63;5053979;28;20678;-70
2022/05/13 04:32:47;;;;;;;10.40;7.00;;;;;;;15.51;100.00;98348.13;5057349;28;20205;-70
2022/05/13 04:35:14;;;;;;;7.40;6.60;;;;;;;15.60;100.00;98368.09;5056987;28;20687;-71
2022/05/13 04:37:40;;;;;;;8.47;5.87;;;;;;;15.61;100.00;98377.75;5057117;28;20599;-70
2022/05/13 04:40:07;;;;;;;8.00;6.37;;;;;;;15.57;100.00;98376.63;5057094;28;20205;-70
2022/05/13 04:42:51;;;;;;;8.47;6.87;;;;;;;15.55;100.00;98372.53;5057089;28;20209;-70
2022/05/13 04:45:27;;;;;;;8.60;7.30;;;;;;;15.55;100.00;98378.72;5056697;28;20590;-70
2022/05/13 04:48:17;;;;;;;8.10;6.70;;;;;;;15.62;100.00;98382.09;5056453;28;20236;-70
2022/05/13 04:50:52;;;;;;;6.80;5.73;;;;;;;15.66;100.00;98380.53;5056928;28;20197;-70
2022/05/13 04:53:22;;;;;;;7.43;6.63;;;;;;;15.62;100.00;98387.44;5057363;28;20189;-70
2022/05/13 04:55:50;;;;;;;8.37;6.40;;;;;;;15.67;100.00;98384.84;5056959;28;20205;-70
2022/05/13 04:58:17;;;;;;;6.77;6.17;;;;;;;15.62;100.00;98398.16;5056774;28;20228;-70
2022/05/13 05:00:45;;;;;;;7.37;6.20;;;;;;;15.63;100.00;98393.59;5056399;28;20209;-70
2022/05/13 05:03:11;;;;;;;7.50;6.23;;;;;;;15.67;100.00;98406.28;5056870;28;20205;-70
2022/05/13 05:05:38;;;;;;;7.37;6.70;;;;;;;15.65;100.00;98394.97;5056465;28;20248;-70
2022/05/13 05:08:05;;;;;;;8.03;6.30;;;;;;;15.63;100.00;98397.09;5056231;28;20236;-70
2022/05/13 05:10:31;;;;;;;9.17;5.70;;;;;;;15.65;100.00;98405.69;5055491;28;20217;-70
2022/05/13 05:12:58;;;;;;;7.80;5.63;;;;;;;15.66;100.00;98407.34;5056265;28;20205;-70
2022/05/13 05:15:26;;;;;;;6.73;6.00;;;;;;;15.61;100.00;98401.06;5055901;28;20211;-70
2022/05/13 05:17:52;;;;;;;9.80;6.80;;;;;;;15.61;100.00;98406.44;5056144;28;20285;-70
2022/05/13 05:20:20;;;;;;;8.50;6.33;;;;;;;15.55;100.00;98394.81;5056177;28;20209;-70
2022/05/13 05:22:47;;;;;;;11.07;6.47;;;;;;;15.56;100.00;98390.28;5055737;28;20209;-70
2022/05/13 05:25:19;;;;;;;10.17;6.10;;;;;;;15.53;100.00;98402.28;5056025;28;20225;-70
2022/05/13 05:27:46;;;;;;;9.27;6.37;;;;;;;15.58;100.00;98399.69;5055834;28;20251;-70
2022/05/13 05:30:14;;;;;;;8.93;6.80;;;;;;;15.70;100.00;98395.06;5054874;28;20572;-70
2022/05/13 05:32:41;;;;;;;8.83;6.40;;;;;;;15.77;100.00;98402.94;5055816;28;20209;-70
2022/05/13 05:35:12;;;;;;;7.87;6.80;;;;;;;15.79;100.00;98404.31;5055590;28;20207;-70
2022/05/13 05:37:38;;;;;;;8.70;6.77;;;;;;;15.92;100.00;98401.31;5055378;28;20275;-70
2022/05/13 05:40:05;;;;;;;9.57;6.17;;;;;;;15.93;100.00;98399.47;5055675;28;20530;-71
2022/05/13 05:42:32;;;;;;;6.80;6.10;;;;;;;15.94;100.00;98404.59;5054300;28;20201;-70
2022/05/13 05:44:58;;;;;;;8.07;6.23;;;;;;;15.96;100.00;98404.34;5054785;28;20221;-70
2022/05/13 05:47:25;;;;;;;9.70;6.50;;;;;;;16.01;100.00;98413.25;5055465;28;20229;-70
2022/05/13 05:49:52;;;;;;;8.33;6.30;;;;;;;16.01;100.00;98410.59;5055278;28;20675;-70
2022/05/13 05:52:18;;;;;;;7.47;5.60;;;;;;;16.05;100.00;98401.00;5055752;28;20201;-70
2022/05/13 05:57:29;;;;;;;7.03;5.73;;;;;;;16.04;100.00;98403.91;5054894;28;20228;-70
2022/05/13 05:59:55;;;;;;;11.63;5.87;;;;;;;15.94;100.00;98420.69;5055320;28;20205;-70
2022/05/13 06:02:21;;;;;;;8.77;6.00;;;;;;;15.99;100.00;98420.75;5054740;28;20213;-70
2022/05/13 06:04:48;;;;;;;6.63;5.83;;;;;;;16.06;100.00;98421.38;5055303;28;20223;-70
2022/05/13 06:07:16;;;;;;;8.10;5.57;;;;;;;16.10;100.00;98429.78;5055048;28;20225;-70
2022/05/13 06:09:44;;;;;;;8.90;6.23;;;;;;;16.09;100.00;98425.44;5055082;28;20243;-70
2022/05/13 06:12:13;;;;;;;6.80;5.97;;;;;;;16.06;100.00;98426.75;5054797;28;20205;-70
2022/05/13 06:14:41;;;;;;;9.27;5.90;;;;;;;16.13;100.00;98434.63;5055175;28;20221;-70
2022/05/13 06:17:08;;;;;;;7.40;6.30;;;;;;;16.15;100.00;98430.66;5055020;28;20212;-70
2022/05/13 06:19:36;;;;;;;9.07;6.20;;;;;;;16.23;100.00;98430.25;5054923;28;20206;-70
2022/05/13 06:22:03;;;;;;;7.70;6.30;;;;;;;16.25;100.00;98433.50;5054376;28;20536;-70
2022/05/13 06:24:29;;;;;;;10.53;6.57;;;;;;;16.23;100.00;98440.97;5054913;28;20225;-70
2022/05/13 06:26:56;;;;;;;8.83;6.73;;;;;;;16.27;100.00;98439.44;5054528;28;20205;-70
2022/05/13 06:29:24;;;;;;;6.77;6.17;;;;;;;16.32;100.00;98434.13;5054092;28;20205;-71
2022/05/13 06:31:52;;;;;;;8.07;6.10;;;;;;;16.31;100.00;98435.19;5053872;28;20684;-70
2022/05/13 06:34:19;;;;;;;7.83;5.03;;;;;;;16.39;100.00;98434.78;5054920;28;20202;-70
2022/05/13 06:36:45;;;;;;;11.00;5.70;;;;;;;16.39;100.00;98436.66;5054840;28;20201;-70
2022/05/13 06:39:13;;;;;;;9.20;5.50;;;;;;;16.50;100.00;98430.38;5054725;28;20224;-70
2022/05/13 06:41:40;;;;;;;12.13;5.37;;;;;;;16.52;100.00;98442.50;5054859;28;20206;-70
2022/05/13 06:44:08;;;;;;;9.33;5.53;;;;;;;16.62;100.00;98439.97;5054615;28;20235;-70
2022/05/13 06:46:39;;;;;;;8.97;5.57;;;;;;;16.67;100.00;98437.34;5054496;28;20205;-71
2022/05/13 06:49:11;;;;;;;8.33;5.73;;;;;;;16.73;100.00;98439.03;5054329;28;20569;-70
2022/05/13 06:51:37;;;;;;;7.47;5.50;;;;;;;16.72;100.00;98440.09;5054499;28;20212;-70
2022/05/13 06:54:06;;;;;;;9.73;4.93;;;;;;;16.64;100.00;98451.25;5054072;28;20208;-70
2022/05/13 06:56:34;;;;;;;6.80;3.70;;;;;;;16.66;100.00;98451.03;5054502;28;20259;-70
2022/05/13 06:59:01;;;;;;;7.87;4.67;;;;;;;16.53;100.00;98454.88;5054351;28;20222;-70
2022/05/13 07:01:27;;;;;;;6.27;4.23;;;;;;;16.52;100.00;98458.59;5054381;28;20205;-70
2022/05/13 07:03:54;;;;;;;8.87;4.40;;;;;;;16.41;100.00;98456.84;5053800;28;20209;-70
2022/05/13 07:06:20;;;;;;;8.33;4.90;;;;;;;16.40;100.00;98457.91;5054201;28;20208;-70
2022/05/13 07:08:47;;;;;;;7.23;4.80;;;;;;;16.34;100.00;98453.50;5054128;28;20338;-70
2022/05/13 07:11:14;;;;;;;12.27;5.07;;;;;;;16.35;100.00;98460.47;5053755;28;20577;-70
2022/05/13 07:13:40;;;;;;;5.67;4.60;;;;;;;16.40;100.00;98463.28;5054073;28;20205;-70
2022/05/13 07:16:06;;;;;;;9.13;4.70;;;;;;;16.42;100.00;98463.03;5053956;28;20205;-70
2022/05/13 07:18:33;;;;;;;9.40;4.60;;;;;;;16.41;100.00;98459.53;5053911;28;20387;-70
2022/05/13 07:20:59;;;;;;;10.83;5.33;;;;;;;16.48;100.00;98473.59;5053911;28;20211;-70
2022/05/13 07:23:26;;;;;;;8.00;4.10;;;;;;;16.46;100.00;98473.00;5053911;28;20287;-70
2022/05/13 07:25:53;;;;;;;6.10;4.10;;;;;;;16.40;100.00;98478.56;5053941;28;20332;-70
2022/05/13 07:28:20;;;;;;;8.93;5.00;;;;;;;16.37;100.00;98481.72;5053720;28;20221;-70
2022/05/13 07:30:47;;;;;;;5.37;3.90;;;;;;;16.41;100.00;98483.66;5053605;28;20292;-70
2022/05/13 07:33:14;;;;;;;8.53;4.00;;;;;;;16.43;100.00;98489.63;5053399;28;20740;-70
2022/05/13 07:35:40;;;;;;;10.60;3.63;;;;;;;16.45;100.00;98487.50;5053460;28;20251;-71
2022/05/13 07:38:08;;;;;;;8.00;3.20;;;;;;;16.52;98.74;98498.06;5053182;28;20232;-71
2022/05/13 07:43:21;;;;;;;7.53;3.30;;;;;;;16.42;99.65;98492.56;5036117;28;20197;-71
2022/05/13 07:45:47;;;;;;;7.23;3.20;;;;;;;16.41;98.20;98501.63;5053537;28;20243;-70
2022/05/13 07:48:14;;;;;;;8.87;3.80;;;;;;;16.58;98.47;98497.06;5053209;28;20248;-70
2022/05/13 07:50:41;;;;;;;6.00;3.10;;;;;;;16.68;90.62;98513.31;5053296;28;20567;-71
2022/05/13 07:53:08;;;;;;;4.70;3.20;;;;;;;16.64;98.49;98513.00;5053557;28;20339;-71
2022/05/13 07:55:35;;;;;;;6.27;3.20;;;;;;;16.58;100.00;98518.53;5053446;28;20201;-70
2022/05/13 07:58:01;;;;;;;9.30;3.40;;;;;;;16.53;100.00;98518.47;5053371;28;20225;-71
2022/05/13 08:00:29;;;;;;;6.83;3.47;;;;;;;16.56;100.00;98518.00;5053351;28;20215;-71
2022/05/13 08:03:17;;;;;;;6.97;3.60;;;;;;;16.64;100.00;98515.69;5053472;28;20217;-71
2022/05/13 08:05:50;;;;;;;6.43;3.80;;;;;;;16.91;100.00;98513.09;5052592;28;20209;-70
2022/05/13 08:08:26;;;;;;;5.90;3.07;;;;;;;17.01;93.63;98519.44;5052906;28;20232;-71
2022/05/13 08:10:55;;;;;;;7.07;3.33;;;;;;;17.20;94.51;98514.59;5053062;28;20251;-72
2022/05/13 08:13:24;;;;;;;5.90;3.27;;;;;;;17.40;85.59;98522.91;5053228;28;20209;-71
2022/05/13 08:15:51;;;;;;;5.60;2.70;;;;;;;17.53;85.32;98517.16;5052969;28;20659;-71
2022/05/13 08:18:19;;;;;;;6.20;3.07;;;;;;;17.60;92.35;98513.19;5053186;28;20231;-71
2022/05/13 08:20:46;;;;;;;8.37;3.07;;;;;;;17.51;89.42;98522.78;5053186;28;20570;-71
2022/05/13 08:23:13;;;;;;;10.07;3.00;;;;;;;17.56;88.39;98516.66;5053138;28;20220;-71
2022/05/13 08:25:39;;;;;;;5.27;2.67;;;;;;;17.60;82.81;98523.97;5052528;28;20231;-71
2022/05/13 08:28:09;;;;;;;6.10;2.70;;;;;;;17.66;79.20;98525.66;5052704;28;20240;-71
2022/05/13 08:30:37;;;;;;;8.50;3.37;;;;;;;17.95;82.60;98520.81;5053216;28;20212;-72
2022/05/13 08:33:08;;;;;;;6.43;2.87;;;;;;;17.95;85.82;98529.72;5052885;28;20572;-71
2022/05/13 08:35:35;;;;;;;8.03;2.63;;;;;;;17.99;79.67;98528.16;5053120;28;20190;-72
2022/05/13 08:38:02;;;;;;;6.87;2.87;;;;;;;18.05;76.25;98535.19;5052956;28;20248;-71
2022/05/13 08:41:05;;;;;;;5.67;2.57;;;;;;;17.96;70.27;98531.34;5052641;28;20664;-72
2022/05/13 08:43:36;;;;;;;4.40;2.47;;;;;;;18.21;75.65;98523.50;5053020;28;20292;-72
2022/05/13 08:46:17;;;;;;;6.97;2.97;;;;;;;18.44;77.49;98525.06;5052971;28;20217;-72
2022/05/13 08:48:56;;;;;;;5.97;2.67;;;;;;;18.58;65.49;98527.06;5052867;28;20225;-71
2022/05/13 08:51:29;;;;;;;7.27;2.93;;;;;;;18.41;66.84;98529.06;5035665;28;20193;-71
2022/05/13 08:54:07;;;;;;;5.60;2.73;;;;;;;18.49;67.93;98519.72;5052678;28;20195;-71
2022/05/13 08:56:33;;;;;;;7.20;3.00;;;;;;;18.53;65.69;98535.09;5052842;28;20201;-71
2022/05/13 08:59:14;;;;;;;6.90;2.40;;;;;;;18.45;64.02;98532.88;5052694;28;20222;-71
2022/05/13 09:01:47;;;;;;;6.50;2.70;;;;;;;18.56;64.09;98533.78;5052799;28;20196;-71
2022/05/13 09:04:26;;;;;;;9.17;2.70;;;;;;;18.48;61.52;98524.31;5052868;28;20190;-71
2022/05/13 09:06:57;;;;;;;9.33;2.50;;;;;;;18.52;68.13;98519.19;5052566;28;20655;-70
2022/05/13 09:09:23;;;;;;;9.43;2.80;;;;;;;18.50;71.34;98524.84;5052402;28;20238;-71
2022/05/13 09:12:01;;;;;;;7.13;2.40;;;;;;;18.50;62.71;98521.34;5052365;28;20665;-70
2022/05/13 09:14:39;;;;;;;8.73;2.70;;;;;;;18.64;60.82;98520.63;5052698;28;20186;-71
2022/05/13 09:17:20;;;;;;;8.93;2.70;;;;;;;18.95;74.23;98517.06;5054741;28;20200;-71
2022/05/13 09:20:01;;;;;;;10.77;2.47;;;;;;;19.02;63.82;98527.59;5038671;28;20197;-71
2022/05/13 09:23:00;;;;;;;8.37;2.80;;;;;;;18.61;62.89;98520.34;5056241;28;20274;-72
2022/05/13 09:25:47;;;;;;;6.53;2.77;;;;;;;18.84;62.81;98525.34;5055884;28;20676;-71
2022/05/13 09:28:16;;;;;;;8.50;2.73;;;;;;;18.93;67.89;98521.91;5056031;28;20332;-71
2022/05/13 09:30:45;;;;;;;8.80;2.80;;;;;;;18.89;64.87;98526.19;5055675;28;20672;-71
2022/05/13 09:33:25;;;;;;;7.93;3.03;;;;;;;18.59;65.83;98531.38;5056086;28;20201;-70
2022/05/13 09:35:55;;;;;;;7.47;2.57;;;;;;;18.53;67.96;98535.09;5056156;28;20273;-70
2022/05/13 09:38:25;;;;;;;5.77;2.53;;;;;;;18.66;66.33;98526.59;5055925;28;20221;-71
2022/05/13 09:41:05;;;;;;;8.90;2.43;;;;;;;18.88;64.89;98532.66;5055456;28;20548;-71
2022/05/13 09:43:36;;;;;;;6.43;2.47;;;;;;;18.84;66.81;98525.34;5056187;28;20212;-71
2022/05/13 09:46:13;;;;;;;5.93;2.40;;;;;;;18.80;65.67;98532.31;5055747;28;20291;-70
2022/05/13 09:49:04;;;;;;;4.93;2.37;;;;;;;18.57;66.80;98530.84;5055709;28;20229;-70
2022/05/13 09:51:36;;;;;;;7.20;2.57;;;;;;;18.58;61.02;98532.44;5039831;28;20559;-71
2022/05/13 09:54:22;;;;;;;5.87;2.27;;;;;;;18.48;68.75;98532.38;5055786;28;20198;-71
2022/05/13 09:56:53;;;;;;;9.00;2.60;;;;;;;18.49;63.80;98538.56;5055458;28;20189;-71
2022/05/13 09:59:23;;;;;;;4.87;2.23;;;;;;;18.40;61.27;98532.03;5055866;28;20190;-71
2022/05/13 10:01:51;;;;;;;6.27;2.20;;;;;;;18.44;68.33;98527.75;5055446;28;20201;-71
2022/05/13 10:04:26;;;;;;;8.47;2.40;;;;;;;18.45;60.24;98529.38;5055482;28;20571;-71
2022/05/13 10:07:08;;;;;;;4.93;2.10;;;;;;;18.40;59.37;98529.31;5055306;28;20224;-70
2022/05/13 10:15:27;;;;;;;5.73;2.23;;;;;;;18.83;62.49;98524.53;5055067;28;20239;-70
2022/05/13 10:17:59;;;;;;;4.97;2.03;;;;;;;19.10;59.81;98527.91;5037034;28;20735;-71
2022/05/13 10:20:39;;;;;;;5.20;2.10;;;;;;;19.24;63.18;98531.81;5054553;28;20190;-71
2022/05/13 10:23:15;;;;;;;6.53;2.33;;;;;;;18.77;60.32;98530.16;5055580;28;20193;-71
2022/05/13 10:25:51;;;;;;;7.57;2.23;;;;;;;18.70;64.46;98527.69;5054906;28;20216;-71
2022/05/13 10:28:20;;;;;;;5.10;2.43;;;;;;;18.58;68.82;98532.44;5053812;28;20232;-70
2022/05/13 10:30:51;;;;;;;5.97;2.37;;;;;;;18.53;67.37;98534.28;5054909;28;20519;-70
2022/05/13 10:33:31;;;;;;;5.07;2.57;;;;;;;18.29;60.69;98528.44;5054574;28;20216;-70
2022/05/13 10:36:13;;;;;;;4.60;2.30;;;;;;;18.33;62.77;98534.13;5054854;28;20185;-71
2022/05/13 10:38:49;;;;;;;6.77;2.77;;;;;;;18.18;65.48;98536.66;5037947;28;20225;-70
2022/05/13 10:41:40;;;;;;;6.37;2.87;;;;;;;18.22;65.43;98533.19;5054911;28;20199;-71
2022/05/13 10:44:20;;;;;;;5.07;2.67;;;;;;;18.03;67.24;98540.03;5054173;28;20197;-70
2022/05/13 10:46:53;;;;;;;6.63;2.60;;;;;;;17.97;64.81;98543.72;5053589;28;20205;-73
2022/05/13 10:49:20;;;;;;;5.43;2.50;;;;;;;17.95;65.87;98537.78;5036743;28;20205;-71
2022/05/13 10:52:06;;;;;;;12.30;2.80;;;;;;;18.08;64.63;98536.56;5054617;28;20533;-71
2022/05/13 10:54:48;;;;;;;6.23;3.00;;;;;;;18.10;67.72;98535.22;5054440;28;20225;-70
2022/05/13 10:57:17;;;;;;;6.17;2.80;;;;;;;18.19;63.18;98541.78;5054293;28;20225;-70
2022/05/13 11:00:04;;;;;;;7.37;2.70;;;;;;;18.27;64.77;98533.25;5054345;28;20209;-69
2022/05/13 11:02:45;;;;;;;8.30;3.27;;;;;;;18.57;64.32;98535.41;5053653;28;20640;-70
2022/05/13 11:05:35;;;;;;;6.13;3.03;;;;;;;18.47;63.63;98544.22;5053753;28;20236;-70
2022/05/13 11:08:37;;;;;;;5.40;2.87;;;;;;;18.56;64.16;98537.28;5053979;28;20225;-70
2022/05/13 11:11:31;;;;;;;7.73;3.10;;;;;;;18.73;65.63;98537.94;5028783;28;20212;-70
2022/05/13 11:14:20;;;;;;;7.43;3.00;;;;;;;18.79;64.90;98528.84;5054281;28;20201;-71
2022/05/13 11:17:09;;;;;;;6.00;3.13;;;;;;;18.77;65.74;98538.25;5053983;28;20196;-70
2022/05/13 11:20:02;;;;;;;8.37;3.53;;;;;;;18.71;66.49;98533.88;5037795;28;20197;-70
2022/05/13 11:22:34;;;;;;;5.50;2.90;;;;;;;18.88;62.01;98529.97;5053901;28;20200;-70
2022/05/13 11:25:56;;;;;;;8.13;2.90;;;;;;;19.22;63.06;98536.66;5053539;28;20212;-70
2022/05/13 11:28:32;;;;;;;7.83;2.80;;;;;;;19.57;63.98;98525.19;5053753;28;20225;-70
2022/05/13 11:31:37;;;;;;;9.50;3.23;;;;;;;19.82;61.18;98521.75;5053892;28;20251;-70
2022/05/13 11:34:15;;;;;;;6.87;2.60;;;;;;;19.81;64.00;98522.84;4972645;28;20243;-70
2022/05/13 11:37:00;;;;;;;6.77;3.17;;;;;;;20.09;62.33;98523.19;5045007;28;20201;-70
2022/05/13 11:39:55;;;;;;;6.00;3.03;;;;;;;19.73;59.37;98529.56;5053517;28;20185;-70
2022/05/13 11:45:55;;;;;;;4.03;2.43;;;;;;;19.71;61.72;98525.50;5052015;28;20228;-70
2022/05/13 11:48:27;;;;;;;8.07;2.97;;;;;;;19.67;60.60;98531.44;5013697;28;20240;-70
2022/05/13 11:51:03;;;;;;;6.80;2.83;;;;;;;19.47;64.52;98527.84;5053378;28;20228;-70
2022/05/13 11:53:42;;;;;;;5.53;2.37;;;;;;;19.43;60.35;98530.28;5053096;28;20289;-70
2022/05/13 11:56:17;;;;;;;7.80;2.60;;;;;;;19.46;62.11;98527.03;5053350;28;20211;-70
2022/05/13 11:58:58;;;;;;;4.73;2.50;;;;;;;19.52;60.73;98523.31;5053845;28;20225;-70
2022/05/13 12:01:37;;;;;;;5.57;2.50;;;;;;;19.57;62.74;98521.69;5052993;28;20687;-70
2022/05/13 12:04:12;;;;;;;6.23;2.80;;;;;;;19.31;58.92;98526.97;5052900;28;20213;-70
2022/05/13 12:06:51;;;;;;;4.83;2.70;;;;;;;19.35;58.25;98522.69;5053289;28;20224;-71
2022/05/13 12:09:36;;;;;;;4.63;2.33;;;;;;;19.45;60.52;98520.03;5052716;28;20212;-70
2022/05/13 12:12:25;;;;;;;6.40;2.50;;;;;;;19.38;57.79;98514.06;5052636;28;20601;-71